createdAt,value
2022-08-02T00:01:36.750Z,22.74
2022-08-02T00:04:09.486Z,22.71
2022-08-02T00:06:42.087Z,22.66
2022-08-02T00:09:15.148Z,22.66
2022-08-02T00:11:47.627Z,22.46
2022-08-02T00:14:19.754Z,22.63
2022-08-02T00:16:52.127Z,22.62
2022-08-02T00:19:24.903Z,22.62
2022-08-02T00:21:57.846Z,22.67
2022-08-02T00:24:31.014Z,22.68
2022-08-02T00:27:09.156Z,22.69
2022-08-02T00:29:50.491Z,22.72
2022-08-02T00:32:26.659Z,22.73
2022-08-02T00:34:59.627Z,22.70
2022-08-02T00:37:32.201Z,22.68
2022-08-02T00:40:09.238Z,22.53
2022-08-02T00:42:39.940Z,22.58
2022-08-02T00:45:13.417Z,22.58
2022-08-02T00:47:45.483Z,22.57
2022-08-02T00:50:17.808Z,22.50
2022-08-02T00:52:50.226Z,22.50
2022-08-02T00:55:31.273Z,22.53
2022-08-02T00:58:03.826Z,22.41
2022-08-02T01:00:36.571Z,22.46
2022-08-02T01:03:09.319Z,22.51
2022-08-02T01:06:10.061Z,22.48
2022-08-02T01:08:34.221Z,22.45
2022-08-02T01:11:06.402Z,22.44
2022-08-02T01:13:39.431Z,22.42
2022-08-02T01:16:17.420Z,22.40
2022-08-02T01:18:54.213Z,22.38
2022-08-02T01:21:42.392Z,22.39
2022-08-02T01:24:31.162Z,22.44
2022-08-02T01:27:13.591Z,22.39
2022-08-02T01:29:51.932Z,22.40
2022-08-02T01:32:29.321Z,22.38
2022-08-02T01:35:04.771Z,22.34
2022-08-02T01:37:43.413Z,22.32
2022-08-02T01:40:20.696Z,22.34
2022-08-02T01:42:57.860Z,22.34
2022-08-02T01:45:35.051Z,22.36
2022-08-02T01:48:09.712Z,22.36
2022-08-02T01:50:44.648Z,22.34
2022-08-02T01:53:20.185Z,22.32
2022-08-02T01:55:58.088Z,22.27
2022-08-02T01:58:36.271Z,22.31
2022-08-02T02:01:15.211Z,22.29
2022-08-02T02:03:51.850Z,22.25
2022-08-02T02:06:26.735Z,22.24
2022-08-02T02:09:00.938Z,22.28
2022-08-02T02:12:05.800Z,22.27
2022-08-02T02:14:29.304Z,22.24
2022-08-02T02:17:02.320Z,22.19
2022-08-02T02:19:37.793Z,22.12
2022-08-02T02:22:10.136Z,22.08
2022-08-02T02:24:44.046Z,22.05
2022-08-02T02:27:18.906Z,22.06
2022-08-02T02:29:53.306Z,22.06
2022-08-02T02:32:28.794Z,22.05
2022-08-02T02:35:03.960Z,22.04
2022-08-02T02:37:39.137Z,21.96
2022-08-02T02:40:14.523Z,22.05
2022-08-02T02:42:49.255Z,22.04
2022-08-02T02:45:23.291Z,21.85
2022-08-02T02:47:57.122Z,22.02
2022-08-02T02:50:30.451Z,21.98
2022-08-02T02:53:03.793Z,22.00
2022-08-02T02:55:36.240Z,21.96
2022-08-02T02:58:10.711Z,21.95
2022-08-02T03:01:02.520Z,21.95
2022-08-02T03:03:35.467Z,21.86
2022-08-02T03:06:14.799Z,21.89
2022-08-02T03:08:47.866Z,21.85
2022-08-02T03:11:21.127Z,21.67
2022-08-02T03:13:54.607Z,21.69
2022-08-02T03:16:28.471Z,21.75
2022-08-02T03:19:04.382Z,21.79
2022-08-02T03:21:36.463Z,21.77
2022-08-02T03:24:09.797Z,21.78
2022-08-02T03:26:43.389Z,21.79
2022-08-02T03:29:15.935Z,21.75
2022-08-02T03:31:49.025Z,21.82
2022-08-02T03:34:22.023Z,21.72
2022-08-02T03:36:59.219Z,21.63
2022-08-02T03:39:33.366Z,21.62
2022-08-02T03:42:05.965Z,21.57
2022-08-02T03:44:39.639Z,21.53
2022-08-02T03:47:12.576Z,21.61
2022-08-02T03:49:46.262Z,21.52
2022-08-02T03:52:19.164Z,21.49
2022-08-02T03:54:51.775Z,21.41
2022-08-02T03:57:24.361Z,21.49
2022-08-02T03:59:56.470Z,21.51
2022-08-02T04:02:30.859Z,21.53
2022-08-02T04:05:15.063Z,21.49
2022-08-02T04:08:36.151Z,21.51
2022-08-02T04:11:01.973Z,21.47
2022-08-02T04:13:37.250Z,21.46
2022-08-02T04:16:15.050Z,21.47
2022-08-02T04:18:57.614Z,21.48
2022-08-02T04:21:49.922Z,21.51
2022-08-02T04:24:27.977Z,21.49
2022-08-02T04:27:19.466Z,21.56
2022-08-02T04:30:01.473Z,21.51
2022-08-02T04:32:34.511Z,21.51
2022-08-02T04:35:25.277Z,21.47
2022-08-02T04:38:09.783Z,21.38
2022-08-02T04:40:50.855Z,21.43
2022-08-02T04:43:23.257Z,21.47
2022-08-02T04:45:57.136Z,21.39
2022-08-02T04:48:30.375Z,21.48
2022-08-02T04:51:03.268Z,21.53
2022-08-02T04:53:35.681Z,21.53
2022-08-02T04:56:08.153Z,21.52
2022-08-02T04:58:41.062Z,21.53
2022-08-02T05:01:13.492Z,21.56
2022-08-02T05:03:47.466Z,21.57
2022-08-02T05:06:21.316Z,21.51
2022-08-02T05:08:53.935Z,21.46
2022-08-02T05:11:36.171Z,21.52
2022-08-02T05:14:12.759Z,21.51
2022-08-02T05:16:44.926Z,21.43
2022-08-02T05:19:18.007Z,21.54
2022-08-02T05:21:50.421Z,21.51
2022-08-02T05:24:22.748Z,21.47
2022-08-02T05:26:57.017Z,21.45
2022-08-02T05:29:31.026Z,21.53
2022-08-02T05:32:03.416Z,21.58
2022-08-02T05:34:36.179Z,21.56
2022-08-02T05:37:09.715Z,21.60
2022-08-02T05:39:55.702Z,21.64
2022-08-02T05:42:32.674Z,21.70
2022-08-02T05:45:05.186Z,21.79
2022-08-02T05:47:37.940Z,21.72
2022-08-02T05:50:11.745Z,21.68
2022-08-02T05:52:58.180Z,21.70
2022-08-02T05:55:35.513Z,21.77
2022-08-02T05:58:15.943Z,21.73
2022-08-02T06:00:50.716Z,21.78
2022-08-02T06:03:25.877Z,21.80
2022-08-02T06:06:06.648Z,21.82
2022-08-02T06:08:47.778Z,21.86
2022-08-02T06:11:25.017Z,21.85
2022-08-02T06:13:57.815Z,21.90
2022-08-02T06:16:33.028Z,21.95
2022-08-02T06:19:15.811Z,21.96
2022-08-02T06:22:32.597Z,21.97
2022-08-02T06:24:46.391Z,22.00
2022-08-02T06:27:19.719Z,22.04
2022-08-02T06:29:52.375Z,22.03
2022-08-02T06:32:24.827Z,22.01
2022-08-02T06:34:57.222Z,22.01
2022-08-02T06:37:37.175Z,22.03
2022-08-02T06:40:20.029Z,22.09
2022-08-02T06:42:59.521Z,22.15
2022-08-02T06:45:33.406Z,22.21
2022-08-02T06:48:06.637Z,22.23
2022-08-02T06:50:39.878Z,22.30
2022-08-02T06:53:12.696Z,22.37
2022-08-02T06:55:44.851Z,22.43
2022-08-02T06:58:17.417Z,22.43
2022-08-02T07:00:49.627Z,22.49
2022-08-02T07:03:21.869Z,22.45
2022-08-02T07:05:58.855Z,22.47
2022-08-02T07:08:32.533Z,22.50
2022-08-02T07:11:04.959Z,22.61
2022-08-02T07:13:39.903Z,22.60
2022-08-02T07:16:13.447Z,22.68
2022-08-02T07:18:45.676Z,22.68
2022-08-02T07:21:17.800Z,22.78
2022-08-02T07:24:10.350Z,22.84
2022-08-02T07:27:08.620Z,22.91
2022-08-02T07:29:45.100Z,22.88
2022-08-02T07:32:45.467Z,23.01
2022-08-02T07:35:19.308Z,23.06
2022-08-02T07:37:55.256Z,23.10
2022-08-02T07:40:30.928Z,23.10
2022-08-02T07:43:04.331Z,23.18
2022-08-02T07:45:45.683Z,23.21
2022-08-02T07:48:30.337Z,23.25
2022-08-02T07:51:03.151Z,23.33
2022-08-02T07:53:51.214Z,23.36
2022-08-02T07:56:24.132Z,23.44
2022-08-02T07:58:56.860Z,23.50
2022-08-02T08:01:29.132Z,23.56
2022-08-02T08:04:01.824Z,23.60
2022-08-02T08:06:34.388Z,23.66
2022-08-02T08:09:07.034Z,23.73
2022-08-02T08:11:39.378Z,23.74
2022-08-02T08:14:16.524Z,23.77
2022-08-02T08:16:49.335Z,23.85
2022-08-02T08:19:21.619Z,23.92
2022-08-02T08:22:14.451Z,24.00
2022-08-02T08:24:48.231Z,24.07
2022-08-02T08:27:22.864Z,24.06
2022-08-02T08:29:55.134Z,24.07
2022-08-02T08:32:27.924Z,24.16
2022-08-02T08:35:00.419Z,24.18
2022-08-02T08:37:36.728Z,24.19
2022-08-02T08:40:11.405Z,24.22
2022-08-02T08:42:44.539Z,24.33
2022-08-02T08:45:18.092Z,24.39
2022-08-02T08:48:01.104Z,24.46
2022-08-02T08:50:36.674Z,24.51
2022-08-02T08:53:12.404Z,24.56
2022-08-02T08:55:46.658Z,24.63
2022-08-02T08:58:19.441Z,24.67
2022-08-02T09:00:51.836Z,24.73
2022-08-02T09:03:24.313Z,24.70
2022-08-02T09:06:01.039Z,24.68
2022-08-02T09:08:33.369Z,24.75
2022-08-02T09:11:17.662Z,24.81
2022-08-02T09:13:55.648Z,24.88
2022-08-02T09:16:36.358Z,24.95
2022-08-02T09:19:22.449Z,24.88
2022-08-02T09:22:02.165Z,24.72
2022-08-02T09:24:45.502Z,24.90
2022-08-02T09:27:20.501Z,24.91
2022-08-02T09:30:12.356Z,25.06
2022-08-02T09:32:50.060Z,25.13
2022-08-02T09:36:06.717Z,25.05
2022-08-02T09:38:29.122Z,25.24
2022-08-02T09:41:02.288Z,25.36
2022-08-02T09:44:03.131Z,25.44
2022-08-02T09:46:40.146Z,25.27
2022-08-02T09:49:14.426Z,25.32
2022-08-02T09:51:54.616Z,25.37
2022-08-02T09:54:29.843Z,25.35
2022-08-02T09:57:03.434Z,25.55
2022-08-02T09:59:36.062Z,25.58
2022-08-02T10:02:17.098Z,25.59
2022-08-02T10:04:53.246Z,25.42
2022-08-02T10:07:26.725Z,25.71
2022-08-02T10:09:59.481Z,25.90
2022-08-02T10:12:32.337Z,26.01
2022-08-02T10:15:05.874Z,26.15
2022-08-02T10:17:38.890Z,26.13
2022-08-02T10:20:13.104Z,26.25
2022-08-02T10:22:46.947Z,26.12
2022-08-02T10:25:21.578Z,25.87
2022-08-02T10:28:05.251Z,26.12
2022-08-02T10:30:42.136Z,26.32
2022-08-02T10:33:40.248Z,26.41
2022-08-02T10:36:14.541Z,26.26
2022-08-02T10:38:48.661Z,26.02
2022-08-02T10:41:43.408Z,26.12
2022-08-02T10:44:27.575Z,26.27
2022-08-02T10:47:34.770Z,26.42
2022-08-02T10:50:09.153Z,26.68
2022-08-02T10:52:43.813Z,26.85
2022-08-02T10:55:22.178Z,26.84
2022-08-02T10:58:19.856Z,27.00
2022-08-02T11:00:52.475Z,27.11
2022-08-02T11:03:45.953Z,27.19
2022-08-02T11:06:25.532Z,26.95
2022-08-02T11:09:33.329Z,26.80
2022-08-02T11:12:08.391Z,26.66
2022-08-02T11:14:40.165Z,26.61
2022-08-02T11:17:14.901Z,26.77
2022-08-02T11:19:59.027Z,27.04
2022-08-02T11:22:31.343Z,27.25
2022-08-02T11:26:01.078Z,27.40
2022-08-02T11:28:26.737Z,27.56
2022-08-02T11:31:03.249Z,27.76
2022-08-02T11:33:37.326Z,27.74
2022-08-02T11:36:10.213Z,28.01
2022-08-02T11:38:42.675Z,28.15
2022-08-02T11:41:46.692Z,28.28
2022-08-02T11:44:13.887Z,28.26
2022-08-02T11:46:46.492Z,28.17
2022-08-02T11:49:20.293Z,28.23
2022-08-02T11:51:58.579Z,28.21
2022-08-02T11:54:35.332Z,28.43
2022-08-02T11:57:20.648Z,28.55
2022-08-02T11:59:55.924Z,28.51
2022-08-02T12:02:28.891Z,28.65
2022-08-02T12:05:03.506Z,28.63
2022-08-02T12:07:45.772Z,28.38
2022-08-02T12:10:21.095Z,28.46
2022-08-02T12:12:54.996Z,28.31
2022-08-02T12:15:41.768Z,28.19
2022-08-02T12:18:33.370Z,28.06
2022-08-02T12:21:23.248Z,27.75
2022-08-02T12:24:00.662Z,27.56
2022-08-02T12:26:42.506Z,27.27
2022-08-02T12:29:15.799Z,27.36
2022-08-02T12:32:09.093Z,27.67
2022-08-02T12:34:41.359Z,28.04
2022-08-02T12:37:13.859Z,27.98
2022-08-02T12:39:50.074Z,27.75
2022-08-02T12:42:22.492Z,27.95
2022-08-02T12:45:00.089Z,28.10
2022-08-02T12:47:36.026Z,28.28
2022-08-02T12:50:20.913Z,28.32
2022-08-02T12:53:03.572Z,28.52
2022-08-02T12:56:01.845Z,28.30
2022-08-02T12:58:47.872Z,28.52
2022-08-02T13:01:25.189Z,28.67
2022-08-02T13:04:10.326Z,28.75
2022-08-02T13:06:45.842Z,28.92
2022-08-02T13:09:19.502Z,29.03
2022-08-02T13:11:51.725Z,29.17
2022-08-02T13:14:23.879Z,29.28
2022-08-02T13:16:56.346Z,29.25
2022-08-02T13:19:28.503Z,29.46
2022-08-02T13:22:04.157Z,29.48
2022-08-02T13:24:40.174Z,29.68
2022-08-02T13:27:28.815Z,29.79
2022-08-02T13:30:01.433Z,29.92
2022-08-02T13:32:34.057Z,29.62
2022-08-02T13:35:06.919Z,29.79
2022-08-02T13:37:51.091Z,29.97
2022-08-02T13:40:24.318Z,29.88
2022-08-02T13:42:57.880Z,30.17
2022-08-02T13:45:29.961Z,30.12
2022-08-02T13:48:03.718Z,30.19
2022-08-02T13:50:38.584Z,30.37
2022-08-02T13:53:10.954Z,30.35
2022-08-02T13:55:43.546Z,29.98
2022-08-02T13:58:16.113Z,29.97
2022-08-02T14:00:48.612Z,30.13
2022-08-02T14:03:20.791Z,30.26
2022-08-02T14:05:52.963Z,30.34
2022-08-02T14:08:25.170Z,30.45
2022-08-02T14:10:57.740Z,30.49
2022-08-02T14:13:30.050Z,30.51
2022-08-02T14:16:09.173Z,30.67
2022-08-02T14:18:41.727Z,30.71
2022-08-02T14:21:13.827Z,30.58
2022-08-02T14:23:50.830Z,30.47
2022-08-02T14:26:27.482Z,30.02
2022-08-02T14:29:01.146Z,30.16
2022-08-02T14:31:33.442Z,30.81
2022-08-02T14:34:05.877Z,30.71
2022-08-02T14:36:39.772Z,30.78
2022-08-02T14:39:12.544Z,30.42
2022-08-02T14:41:58.887Z,30.11
2022-08-02T14:44:33.557Z,29.85
2022-08-02T14:47:06.970Z,29.62
2022-08-02T14:49:41.836Z,29.40
2022-08-02T14:52:15.837Z,29.27
2022-08-02T14:54:48.488Z,29.07
2022-08-02T14:57:20.722Z,29.20
2022-08-02T14:59:53.106Z,29.42
2022-08-02T15:02:25.692Z,29.62
2022-08-02T15:04:58.674Z,29.86
2022-08-02T15:07:31.033Z,29.99
2022-08-02T15:10:03.097Z,29.81
2022-08-02T15:12:35.492Z,30.24
2022-08-02T15:15:09.227Z,29.97
2022-08-02T15:17:42.092Z,30.29
2022-08-02T15:20:24.490Z,30.18
2022-08-02T15:22:58.412Z,30.24
2022-08-02T15:25:31.404Z,30.03
2022-08-02T15:28:06.893Z,29.80
2022-08-02T15:30:40.170Z,29.57
2022-08-02T15:33:12.711Z,29.49
2022-08-02T15:35:45.091Z,29.62
2022-08-02T15:38:17.823Z,29.74
2022-08-02T15:40:50.304Z,29.71
2022-08-02T15:43:22.713Z,29.68
2022-08-02T15:45:54.862Z,29.66
2022-08-02T15:48:27.347Z,29.72
2022-08-02T15:50:59.690Z,29.71
2022-08-02T15:53:32.090Z,29.67
2022-08-02T15:56:09.758Z,29.63
2022-08-02T15:58:44.837Z,29.54
2022-08-02T16:01:18.741Z,29.48
2022-08-02T16:03:51.102Z,29.37
2022-08-02T16:06:23.374Z,29.31
2022-08-02T16:08:57.483Z,29.22
2022-08-02T16:11:29.937Z,29.16
2022-08-02T16:14:02.269Z,29.12
2022-08-02T16:16:36.394Z,29.06
2022-08-02T16:19:30.394Z,28.95
2022-08-02T16:22:01.993Z,28.88
2022-08-02T16:24:34.177Z,28.87
2022-08-02T16:27:08.500Z,28.82
2022-08-02T16:29:41.000Z,28.84
2022-08-02T16:32:16.845Z,28.76
2022-08-02T16:35:07.451Z,28.66
2022-08-02T16:37:51.605Z,28.56
2022-08-02T16:40:25.463Z,28.47
2022-08-02T16:42:57.746Z,28.42
2022-08-02T16:45:32.535Z,28.28
2022-08-02T16:48:07.021Z,28.29
2022-08-02T16:50:41.591Z,28.16
2022-08-02T16:53:34.134Z,28.11
2022-08-02T16:56:09.805Z,28.10
2022-08-02T16:58:45.020Z,28.06
2022-08-02T17:01:27.247Z,28.03
2022-08-02T17:04:00.292Z,27.97
2022-08-02T17:06:32.927Z,27.90
2022-08-02T17:09:05.580Z,27.87
2022-08-02T17:11:45.378Z,27.80
2022-08-02T17:14:19.149Z,27.75
2022-08-02T17:16:52.786Z,27.69
2022-08-02T17:19:25.224Z,27.64
2022-08-02T17:21:57.420Z,27.57
2022-08-02T17:24:29.820Z,27.53
2022-08-02T17:27:03.470Z,27.47
2022-08-02T17:29:37.526Z,27.42
2022-08-02T17:32:18.687Z,27.37
2022-08-02T17:34:59.839Z,27.34
2022-08-02T17:37:33.060Z,27.28
2022-08-02T17:40:10.393Z,27.21
2022-08-02T17:42:42.604Z,27.14
2022-08-02T17:45:16.457Z,27.07
2022-08-02T17:48:03.961Z,26.98
2022-08-02T17:50:38.358Z,26.92
2022-08-02T17:53:10.672Z,26.86
2022-08-02T17:55:44.942Z,26.79
2022-08-02T17:58:23.414Z,26.71
2022-08-02T18:01:23.540Z,26.65
2022-08-02T18:03:56.904Z,26.50
2022-08-02T18:06:30.413Z,26.49
2022-08-02T18:09:03.384Z,26.43
2022-08-02T18:11:52.524Z,26.29
2022-08-02T18:14:26.422Z,26.29
2022-08-02T18:16:59.072Z,26.26
2022-08-02T18:19:42.137Z,26.20
2022-08-02T18:22:15.591Z,26.14
2022-08-02T18:24:48.326Z,26.08
2022-08-02T18:27:22.343Z,26.02
2022-08-02T18:30:00.438Z,25.97
2022-08-02T18:33:55.358Z,25.90
2022-08-02T18:35:31.295Z,25.84
2022-08-02T18:38:11.037Z,25.79
2022-08-02T18:40:45.052Z,25.71
2022-08-02T18:43:25.447Z,25.64
2022-08-02T18:46:06.787Z,25.56
2022-08-02T18:48:48.861Z,25.48
2022-08-02T18:51:23.354Z,25.40
2022-08-02T18:53:57.157Z,25.20
2022-08-02T18:56:29.631Z,25.23
2022-08-02T18:59:07.482Z,25.17
2022-08-02T19:01:46.846Z,25.11
2022-08-02T19:04:27.013Z,25.04
2022-08-02T19:07:07.634Z,24.96
2022-08-02T19:09:41.118Z,24.89
2022-08-02T19:12:13.962Z,24.84
2022-08-02T19:14:48.315Z,24.78
2022-08-02T19:17:54.821Z,24.72
2022-08-02T19:20:19.560Z,24.67
2022-08-02T19:22:53.538Z,24.62
2022-08-02T19:25:27.840Z,24.56
2022-08-02T19:28:01.015Z,24.40
2022-08-02T19:30:34.942Z,24.43
2022-08-02T19:33:09.546Z,24.38
2022-08-02T19:36:01.651Z,24.33
2022-08-02T19:38:38.553Z,24.29
2022-08-02T19:41:15.900Z,24.24
2022-08-02T19:44:23.897Z,24.21
2022-08-02T19:46:41.647Z,24.17
2022-08-02T19:52:10.358Z,24.10
2022-08-02T19:54:57.884Z,24.06
2022-08-02T19:57:34.615Z,24.03
2022-08-02T20:00:11.487Z,24.02
2022-08-02T20:02:48.945Z,23.99
2022-08-02T20:05:23.771Z,23.96
2022-08-02T20:07:57.071Z,23.95
2022-08-02T20:10:30.348Z,23.95
2022-08-02T20:13:05.994Z,23.92
2022-08-02T20:15:55.813Z,23.90
2022-08-02T20:18:30.716Z,23.86
2022-08-02T20:21:03.212Z,23.73
2022-08-02T20:23:35.383Z,23.80
2022-08-02T20:26:09.124Z,23.76
2022-08-02T20:28:41.772Z,23.74
2022-08-02T20:31:13.961Z,23.72
2022-08-02T20:33:55.540Z,23.71
2022-08-02T20:36:39.753Z,23.68
2022-08-02T20:39:11.922Z,23.65
2022-08-02T20:41:45.974Z,23.60
2022-08-02T20:44:30.930Z,23.56
2022-08-02T20:47:04.682Z,23.52
2022-08-02T20:49:57.021Z,23.51
2022-08-02T20:52:29.500Z,23.50
2022-08-02T20:55:02.986Z,23.47
2022-08-02T20:57:59.878Z,23.46
2022-08-02T21:00:29.252Z,23.45
2022-08-02T21:03:02.678Z,23.42
2022-08-02T21:05:43.539Z,23.41
2022-08-02T21:08:26.971Z,23.30
2022-08-02T21:10:59.277Z,23.41
2022-08-02T21:13:31.690Z,23.40
2022-08-02T21:21:50.933Z,23.36
2022-08-02T21:24:24.680Z,23.37
2022-08-02T21:26:57.222Z,23.36
2022-08-02T21:29:29.661Z,23.33
2022-08-02T21:32:05.912Z,23.32
2022-08-02T21:34:39.587Z,23.31
2022-08-02T21:37:11.858Z,23.28
2022-08-02T21:39:49.843Z,23.25
2022-08-02T21:42:23.547Z,23.23
2022-08-02T21:44:56.403Z,23.21
2022-08-02T21:47:30.954Z,23.19
2022-08-02T21:50:09.648Z,23.13
2022-08-02T21:52:52.190Z,23.11
2022-08-02T21:56:00.134Z,23.08
2022-08-02T21:58:20.078Z,23.05
2022-08-02T22:00:53.902Z,23.02
2022-08-02T22:03:26.690Z,23.01
2022-08-02T22:06:01.989Z,23.00
2022-08-02T22:08:37.186Z,22.95
2022-08-02T22:11:16.995Z,22.95
2022-08-02T22:13:49.695Z,22.93
2022-08-02T22:16:23.084Z,22.85
2022-08-02T22:19:00.182Z,22.93
2022-08-02T22:21:46.682Z,22.92
2022-08-02T22:24:29.686Z,22.92
2022-08-02T22:27:03.102Z,22.91
2022-08-02T22:29:35.268Z,22.90
2022-08-02T22:32:07.842Z,22.90
2022-08-02T22:34:51.743Z,22.90
2022-08-02T22:38:17.694Z,22.78
2022-08-02T22:40:17.002Z,22.87
2022-08-02T22:42:49.622Z,22.88
2022-08-02T22:45:22.291Z,22.88
2022-08-02T22:47:54.423Z,22.88
2022-08-02T22:50:28.443Z,22.85
2022-08-02T22:53:02.919Z,22.86
2022-08-02T22:55:36.023Z,22.87
2022-08-02T22:58:14.102Z,22.85
2022-08-02T22:58:53.231Z,24.14
2022-08-02T22:59:02.440Z,23.31
2022-08-02T22:59:12.742Z,23.38
2022-08-02T23:00:51.750Z,22.85
2022-08-02T23:03:24.225Z,22.87
2022-08-02T23:05:56.605Z,22.86
2022-08-02T23:08:28.846Z,22.78
2022-08-02T23:11:01.002Z,22.85
2022-08-02T23:13:34.117Z,22.75
2022-08-02T23:16:24.527Z,22.80
2022-08-02T23:19:22.940Z,22.77
2022-08-02T23:22:01.647Z,22.76
2022-08-02T23:24:35.423Z,22.75
2022-08-02T23:27:07.496Z,22.74
2022-08-02T23:29:39.568Z,22.74
2022-08-02T23:32:11.772Z,22.72
2022-08-02T23:34:44.233Z,22.71
2022-08-02T23:37:16.436Z,22.71
2022-08-02T23:39:48.971Z,22.70
2022-08-02T23:42:21.115Z,22.60
2022-08-02T23:44:53.270Z,22.60
2022-08-02T23:47:26.182Z,22.69
2022-08-02T23:49:59.432Z,22.67
2022-08-02T23:52:32.102Z,22.59
2022-08-02T23:55:05.546Z,22.47
2022-08-02T23:57:37.842Z,22.63
